sensor_id;sensor_type;location;lat;lon;timestamp;P1;durP1;ratioP1;P2;durP2;ratioP2
81036;SDS011;70521;47.468;19.306;2023-11-18T00:01:04;28.67;;;27.48;;
81036;SDS011;70521;47.468;19.306;2023-11-18T00:04:05;36.67;;;35.38;;
81036;SDS011;70521;47.468;19.306;2023-11-18T00:07:10;26.27;;;25.05;;
81036;SDS011;70521;47.468;19.306;2023-11-18T00:10:11;33.33;;;32.08;;
81036;SDS011;70521;47.468;19.306;2023-11-18T00:13:12;29.75;;;28.25;;
81036;SDS011;70521;47.468;19.306;2023-11-18T00:16:14;25.83;;;24.80;;
81036;SDS011;70521;47.468;19.306;2023-11-18T00:19:16;31.77;;;30.45;;
81036;SDS011;70521;47.468;19.306;2023-11-18T00:22:18;26.30;;;24.73;;
81036;SDS011;70521;47.468;19.306;2023-11-18T00:25:19;27.30;;;26.10;;
81036;SDS011;70521;47.468;19.306;2023-11-18T00:28:20;38.60;;;37.17;;
81036;SDS011;70521;47.468;19.306;2023-11-18T00:31:21;21.30;;;20.30;;
81036;SDS011;70521;47.468;19.306;2023-11-18T00:34:23;25.15;;;23.95;;
81036;SDS011;70521;47.468;19.306;2023-11-18T00:37:26;28.92;;;27.73;;
81036;SDS011;70521;47.468;19.306;2023-11-18T00:40:27;20.58;;;19.65;;
81036;SDS011;70521;47.468;19.306;2023-11-18T00:43:30;21.52;;;20.65;;
81036;SDS011;70521;47.468;19.306;2023-11-18T00:46:32;16.23;;;15.50;;
81036;SDS011;70521;47.468;19.306;2023-11-18T00:49:37;19.55;;;18.55;;
81036;SDS011;70521;47.468;19.306;2023-11-18T00:52:38;18.40;;;17.67;;
81036;SDS011;70521;47.468;19.306;2023-11-18T00:55:41;28.40;;;27.27;;
81036;SDS011;70521;47.468;19.306;2023-11-18T00:58:42;25.35;;;24.42;;
81036;SDS011;70521;47.468;19.306;2023-11-18T01:01:44;18.00;;;17.20;;
81036;SDS011;70521;47.468;19.306;2023-11-18T01:04:45;28.63;;;27.50;;
81036;SDS011;70521;47.468;19.306;2023-11-18T01:07:46;27.23;;;26.25;;
81036;SDS011;70521;47.468;19.306;2023-11-18T01:10:47;19.15;;;18.33;;
81036;SDS011;70521;47.468;19.306;2023-11-18T01:13:49;28.42;;;27.38;;
81036;SDS011;70521;47.468;19.306;2023-11-18T01:16:50;24.70;;;23.75;;
81036;SDS011;70521;47.468;19.306;2023-11-18T01:19:51;23.13;;;21.95;;
81036;SDS011;70521;47.468;19.306;2023-11-18T01:22:52;30.67;;;29.58;;
81036;SDS011;70521;47.468;19.306;2023-11-18T01:25:53;36.53;;;35.17;;
81036;SDS011;70521;47.468;19.306;2023-11-18T01:28:54;19.45;;;18.52;;
81036;SDS011;70521;47.468;19.306;2023-11-18T01:31:56;26.83;;;25.60;;
81036;SDS011;70521;47.468;19.306;2023-11-18T01:34:57;20.08;;;19.17;;
81036;SDS011;70521;47.468;19.306;2023-11-18T01:37:58;26.10;;;24.95;;
81036;SDS011;70521;47.468;19.306;2023-11-18T01:40:59;26.15;;;25.02;;
81036;SDS011;70521;47.468;19.306;2023-11-18T01:44:01;22.23;;;21.33;;
81036;SDS011;70521;47.468;19.306;2023-11-18T01:47:02;19.38;;;18.60;;
81036;SDS011;70521;47.468;19.306;2023-11-18T01:50:08;22.58;;;21.60;;
81036;SDS011;70521;47.468;19.306;2023-11-18T01:53:10;22.50;;;21.70;;
81036;SDS011;70521;47.468;19.306;2023-11-18T01:56:12;26.80;;;25.45;;
81036;SDS011;70521;47.468;19.306;2023-11-18T01:59:13;22.67;;;21.65;;
81036;SDS011;70521;47.468;19.306;2023-11-18T02:02:20;27.80;;;26.67;;
81036;SDS011;70521;47.468;19.306;2023-11-18T02:05:21;24.50;;;23.50;;
81036;SDS011;70521;47.468;19.306;2023-11-18T02:08:22;14.98;;;14.07;;
81036;SDS011;70521;47.468;19.306;2023-11-18T02:11:30;20.45;;;19.40;;
81036;SDS011;70521;47.468;19.306;2023-11-18T02:14:33;25.85;;;24.75;;
81036;SDS011;70521;47.468;19.306;2023-11-18T02:17:34;17.10;;;16.35;;
81036;SDS011;70521;47.468;19.306;2023-11-18T02:20:38;30.80;;;29.70;;
81036;SDS011;70521;47.468;19.306;2023-11-18T02:23:40;16.77;;;16.00;;
81036;SDS011;70521;47.468;19.306;2023-11-18T02:26:41;17.83;;;17.10;;
81036;SDS011;70521;47.468;19.306;2023-11-18T02:29:43;21.83;;;20.85;;
81036;SDS011;70521;47.468;19.306;2023-11-18T02:32:58;17.45;;;16.63;;
81036;SDS011;70521;47.468;19.306;2023-11-18T02:36:02;39.58;;;38.22;;
81036;SDS011;70521;47.468;19.306;2023-11-18T02:39:08;17.13;;;16.40;;
81036;SDS011;70521;47.468;19.306;2023-11-18T02:42:12;18.23;;;17.48;;
81036;SDS011;70521;47.468;19.306;2023-11-18T02:45:13;20.30;;;19.40;;
81036;SDS011;70521;47.468;19.306;2023-11-18T02:48:17;23.35;;;22.45;;
81036;SDS011;70521;47.468;19.306;2023-11-18T02:51:19;19.35;;;18.63;;
81036;SDS011;70521;47.468;19.306;2023-11-18T02:54:20;14.85;;;14.15;;
81036;SDS011;70521;47.468;19.306;2023-11-18T02:57:21;31.25;;;30.25;;
81036;SDS011;70521;47.468;19.306;2023-11-18T03:00:22;18.67;;;17.88;;
81036;SDS011;70521;47.468;19.306;2023-11-18T03:03:23;13.70;;;13.13;;
81036;SDS011;70521;47.468;19.306;2023-11-18T03:06:24;33.42;;;32.22;;
81036;SDS011;70521;47.468;19.306;2023-11-18T03:09:26;22.40;;;21.52;;
81036;SDS011;70521;47.468;19.306;2023-11-18T03:12:28;23.35;;;22.42;;
81036;SDS011;70521;47.468;19.306;2023-11-18T03:15:29;19.85;;;19.13;;
81036;SDS011;70521;47.468;19.306;2023-11-18T03:18:31;16.77;;;16.05;;
81036;SDS011;70521;47.468;19.306;2023-11-18T03:21:32;19.38;;;18.65;;
81036;SDS011;70521;47.468;19.306;2023-11-18T03:24:33;22.63;;;21.83;;
81036;SDS011;70521;47.468;19.306;2023-11-18T03:27:34;21.05;;;20.15;;
81036;SDS011;70521;47.468;19.306;2023-11-18T03:30:36;20.58;;;19.65;;
81036;SDS011;70521;47.468;19.306;2023-11-18T03:33:38;20.65;;;19.83;;
81036;SDS011;70521;47.468;19.306;2023-11-18T03:36:40;25.10;;;24.10;;
81036;SDS011;70521;47.468;19.306;2023-11-18T03:39:41;17.88;;;17.20;;
81036;SDS011;70521;47.468;19.306;2023-11-18T03:42:42;23.48;;;22.35;;
81036;SDS011;70521;47.468;19.306;2023-11-18T03:45:48;21.50;;;20.60;;
81036;SDS011;70521;47.468;19.306;2023-11-18T03:48:49;18.13;;;17.33;;
81036;SDS011;70521;47.468;19.306;2023-11-18T03:51:50;22.10;;;21.20;;
81036;SDS011;70521;47.468;19.306;2023-11-18T03:54:51;17.98;;;17.25;;
81036;SDS011;70521;47.468;19.306;2023-11-18T03:57:52;19.63;;;18.90;;
81036;SDS011;70521;47.468;19.306;2023-11-18T04:00:55;17.92;;;17.10;;
81036;SDS011;70521;47.468;19.306;2023-11-18T04:03:56;16.98;;;16.33;;
81036;SDS011;70521;47.468;19.306;2023-11-18T04:06:57;21.85;;;21.00;;
81036;SDS011;70521;47.468;19.306;2023-11-18T04:10:01;20.88;;;20.05;;
81036;SDS011;70521;47.468;19.306;2023-11-18T04:13:03;22.00;;;21.08;;
81036;SDS011;70521;47.468;19.306;2023-11-18T04:16:04;26.80;;;25.85;;
81036;SDS011;70521;47.468;19.306;2023-11-18T04:19:05;23.08;;;22.08;;
81036;SDS011;70521;47.468;19.306;2023-11-18T04:22:07;24.23;;;23.42;;
81036;SDS011;70521;47.468;19.306;2023-11-18T04:25:08;33.58;;;32.42;;
81036;SDS011;70521;47.468;19.306;2023-11-18T04:28:10;16.90;;;16.17;;
81036;SDS011;70521;47.468;19.306;2023-11-18T04:31:12;32.28;;;31.25;;
81036;SDS011;70521;47.468;19.306;2023-11-18T04:34:13;43.10;;;41.63;;
81036;SDS011;70521;47.468;19.306;2023-11-18T04:37:14;21.38;;;20.58;;
81036;SDS011;70521;47.468;19.306;2023-11-18T04:40:15;20.35;;;19.45;;
81036;SDS011;70521;47.468;19.306;2023-11-18T04:43:17;25.13;;;24.13;;
81036;SDS011;70521;47.468;19.306;2023-11-18T04:46:18;17.48;;;16.83;;
81036;SDS011;70521;47.468;19.306;2023-11-18T04:49:20;25.42;;;24.45;;
81036;SDS011;70521;47.468;19.306;2023-11-18T04:52:21;31.60;;;30.55;;
81036;SDS011;70521;47.468;19.306;2023-11-18T04:55:22;23.02;;;22.20;;
81036;SDS011;70521;47.468;19.306;2023-11-18T04:58:23;22.77;;;22.00;;
81036;SDS011;70521;47.468;19.306;2023-11-18T05:01:24;19.73;;;19.02;;
81036;SDS011;70521;47.468;19.306;2023-11-18T05:04:25;23.92;;;23.00;;
81036;SDS011;70521;47.468;19.306;2023-11-18T05:07:26;17.42;;;16.73;;
81036;SDS011;70521;47.468;19.306;2023-11-18T05:10:29;32.95;;;31.75;;
81036;SDS011;70521;47.468;19.306;2023-11-18T05:13:30;17.17;;;16.48;;
81036;SDS011;70521;47.468;19.306;2023-11-18T05:16:31;20.25;;;19.45;;
81036;SDS011;70521;47.468;19.306;2023-11-18T05:19:32;29.42;;;28.33;;
81036;SDS011;70521;47.468;19.306;2023-11-18T05:22:33;28.90;;;27.90;;
81036;SDS011;70521;47.468;19.306;2023-11-18T05:25:34;29.75;;;28.63;;
81036;SDS011;70521;47.468;19.306;2023-11-18T05:28:35;16.70;;;16.08;;
81036;SDS011;70521;47.468;19.306;2023-11-18T05:31:36;25.80;;;24.88;;
81036;SDS011;70521;47.468;19.306;2023-11-18T05:34:38;31.45;;;30.35;;
81036;SDS011;70521;47.468;19.306;2023-11-18T05:37:39;18.02;;;17.33;;
81036;SDS011;70521;47.468;19.306;2023-11-18T05:40:42;21.95;;;20.95;;
81036;SDS011;70521;47.468;19.306;2023-11-18T05:43:45;47.72;;;46.10;;
81036;SDS011;70521;47.468;19.306;2023-11-18T05:46:52;26.63;;;25.55;;
81036;SDS011;70521;47.468;19.306;2023-11-18T05:49:53;20.15;;;19.33;;
81036;SDS011;70521;47.468;19.306;2023-11-18T05:52:54;17.85;;;17.02;;
81036;SDS011;70521;47.468;19.306;2023-11-18T05:55:56;24.02;;;23.08;;
81036;SDS011;70521;47.468;19.306;2023-11-18T05:58:57;22.73;;;21.77;;
81036;SDS011;70521;47.468;19.306;2023-11-18T06:01:58;23.05;;;22.15;;
81036;SDS011;70521;47.468;19.306;2023-11-18T06:04:59;36.53;;;35.22;;
81036;SDS011;70521;47.468;19.306;2023-11-18T06:08:00;20.95;;;20.15;;
81036;SDS011;70521;47.468;19.306;2023-11-18T06:11:01;23.02;;;22.08;;
81036;SDS011;70521;47.468;19.306;2023-11-18T06:14:13;31.27;;;30.15;;
81036;SDS011;70521;47.468;19.306;2023-11-18T06:17:14;16.38;;;15.65;;
81036;SDS011;70521;47.468;19.306;2023-11-18T06:20:15;18.30;;;17.52;;
81036;SDS011;70521;47.468;19.306;2023-11-18T06:23:17;14.63;;;13.80;;
81036;SDS011;70521;47.468;19.306;2023-11-18T06:26:20;15.77;;;15.05;;
81036;SDS011;70521;47.468;19.306;2023-11-18T06:29:21;38.15;;;36.85;;
81036;SDS011;70521;47.468;19.306;2023-11-18T06:32:22;20.77;;;19.83;;
81036;SDS011;70521;47.468;19.306;2023-11-18T06:35:26;23.23;;;22.33;;
81036;SDS011;70521;47.468;19.306;2023-11-18T06:38:29;23.73;;;22.83;;
81036;SDS011;70521;47.468;19.306;2023-11-18T06:41:31;14.25;;;13.65;;
81036;SDS011;70521;47.468;19.306;2023-11-18T06:44:35;22.40;;;21.48;;
81036;SDS011;70521;47.468;19.306;2023-11-18T06:47:36;15.25;;;14.52;;
81036;SDS011;70521;47.468;19.306;2023-11-18T06:50:38;20.83;;;19.90;;
81036;SDS011;70521;47.468;19.306;2023-11-18T06:53:44;21.65;;;20.77;;
81036;SDS011;70521;47.468;19.306;2023-11-18T06:56:45;23.10;;;22.38;;
81036;SDS011;70521;47.468;19.306;2023-11-18T06:59:47;16.35;;;15.63;;
81036;SDS011;70521;47.468;19.306;2023-11-18T07:02:49;14.10;;;13.43;;
81036;SDS011;70521;47.468;19.306;2023-11-18T07:05:50;13.98;;;13.40;;
81036;SDS011;70521;47.468;19.306;2023-11-18T07:08:51;9.73;;;9.27;;
81036;SDS011;70521;47.468;19.306;2023-11-18T07:11:53;11.27;;;10.80;;
81036;SDS011;70521;47.468;19.306;2023-11-18T07:14:54;8.77;;;8.30;;
81036;SDS011;70521;47.468;19.306;2023-11-18T07:17:55;12.35;;;11.82;;
81036;SDS011;70521;47.468;19.306;2023-11-18T07:20:56;6.78;;;6.38;;
81036;SDS011;70521;47.468;19.306;2023-11-18T07:23:58;5.80;;;5.50;;
81036;SDS011;70521;47.468;19.306;2023-11-18T07:26:59;5.55;;;5.25;;
81036;SDS011;70521;47.468;19.306;2023-11-18T07:30:00;7.72;;;7.20;;
81036;SDS011;70521;47.468;19.306;2023-11-18T07:33:03;5.15;;;4.85;;
81036;SDS011;70521;47.468;19.306;2023-11-18T07:36:04;5.30;;;4.90;;
81036;SDS011;70521;47.468;19.306;2023-11-18T07:39:07;3.90;;;3.70;;
81036;SDS011;70521;47.468;19.306;2023-11-18T07:42:16;6.45;;;5.95;;
81036;SDS011;70521;47.468;19.306;2023-11-18T07:45:19;8.18;;;7.57;;
81036;SDS011;70521;47.468;19.306;2023-11-18T07:48:20;5.88;;;5.47;;
81036;SDS011;70521;47.468;19.306;2023-11-18T07:51:21;4.22;;;3.92;;
81036;SDS011;70521;47.468;19.306;2023-11-18T07:54:22;3.80;;;3.60;;
81036;SDS011;70521;47.468;19.306;2023-11-18T07:57:24;3.38;;;3.15;;
81036;SDS011;70521;47.468;19.306;2023-11-18T08:00:26;6.00;;;5.60;;
81036;SDS011;70521;47.468;19.306;2023-11-18T08:03:27;3.85;;;3.60;;
81036;SDS011;70521;47.468;19.306;2023-11-18T08:06:29;4.35;;;4.05;;
81036;SDS011;70521;47.468;19.306;2023-11-18T08:09:33;3.47;;;3.22;;
81036;SDS011;70521;47.468;19.306;2023-11-18T08:12:34;3.45;;;3.15;;
81036;SDS011;70521;47.468;19.306;2023-11-18T08:15:38;4.47;;;3.40;;
81036;SDS011;70521;47.468;19.306;2023-11-18T08:18:39;3.15;;;2.78;;
81036;SDS011;70521;47.468;19.306;2023-11-18T08:21:40;3.55;;;3.35;;
81036;SDS011;70521;47.468;19.306;2023-11-18T08:24:42;2.88;;;2.67;;
81036;SDS011;70521;47.468;19.306;2023-11-18T08:27:45;2.42;;;2.22;;
81036;SDS011;70521;47.468;19.306;2023-11-18T08:30:49;2.38;;;2.17;;
81036;SDS011;70521;47.468;19.306;2023-11-18T08:33:52;2.38;;;2.25;;
81036;SDS011;70521;47.468;19.306;2023-11-18T08:36:55;4.63;;;3.53;;
81036;SDS011;70521;47.468;19.306;2023-11-18T08:39:56;3.50;;;3.30;;
81036;SDS011;70521;47.468;19.306;2023-11-18T08:42:57;3.30;;;3.00;;
81036;SDS011;70521;47.468;19.306;2023-11-18T08:45:58;3.63;;;3.33;;
81036;SDS011;70521;47.468;19.306;2023-11-18T08:48:59;4.10;;;3.80;;
81036;SDS011;70521;47.468;19.306;2023-11-18T08:52:06;2.70;;;2.50;;
81036;SDS011;70521;47.468;19.306;2023-11-18T08:55:10;3.60;;;3.35;;
81036;SDS011;70521;47.468;19.306;2023-11-18T08:58:35;3.80;;;3.50;;
81036;SDS011;70521;47.468;19.306;2023-11-18T09:01:38;3.75;;;3.45;;
81036;SDS011;70521;47.468;19.306;2023-11-18T09:04:41;6.82;;;3.80;;
81036;SDS011;70521;47.468;19.306;2023-11-18T09:07:43;3.08;;;2.88;;
81036;SDS011;70521;47.468;19.306;2023-11-18T09:10:49;3.40;;;2.90;;
81036;SDS011;70521;47.468;19.306;2023-11-18T09:13:50;2.42;;;2.22;;
81036;SDS011;70521;47.468;19.306;2023-11-18T09:17:01;2.60;;;2.40;;
81036;SDS011;70521;47.468;19.306;2023-11-18T09:20:02;2.78;;;2.58;;
81036;SDS011;70521;47.468;19.306;2023-11-18T09:23:06;3.22;;;3.03;;
81036;SDS011;70521;47.468;19.306;2023-11-18T09:26:08;2.50;;;2.30;;
81036;SDS011;70521;47.468;19.306;2023-11-18T09:29:09;2.60;;;2.38;;
81036;SDS011;70521;47.468;19.306;2023-11-18T09:32:10;2.33;;;2.10;;
81036;SDS011;70521;47.468;19.306;2023-11-18T09:35:13;2.55;;;2.35;;
81036;SDS011;70521;47.468;19.306;2023-11-18T09:38:14;2.85;;;2.40;;
81036;SDS011;70521;47.468;19.306;2023-11-18T09:41:15;3.00;;;2.63;;
81036;SDS011;70521;47.468;19.306;2023-11-18T09:44:16;4.35;;;4.15;;
81036;SDS011;70521;47.468;19.306;2023-11-18T09:47:19;4.43;;;4.18;;
81036;SDS011;70521;47.468;19.306;2023-11-18T09:50:25;5.15;;;4.85;;
81036;SDS011;70521;47.468;19.306;2023-11-18T09:53:29;3.97;;;3.78;;
81036;SDS011;70521;47.468;19.306;2023-11-18T09:56:55;7.20;;;6.90;;
81036;SDS011;70521;47.468;19.306;2023-11-18T10:00:00;10.32;;;9.93;;
81036;SDS011;70521;47.468;19.306;2023-11-18T10:03:12;5.38;;;5.03;;
81036;SDS011;70521;47.468;19.306;2023-11-18T10:06:16;10.23;;;9.77;;
81036;SDS011;70521;47.468;19.306;2023-11-18T10:09:18;6.07;;;5.68;;
81036;SDS011;70521;47.468;19.306;2023-11-18T10:12:25;6.90;;;6.50;;
81036;SDS011;70521;47.468;19.306;2023-11-18T10:15:27;8.98;;;8.60;;
81036;SDS011;70521;47.468;19.306;2023-11-18T10:18:28;14.77;;;14.05;;
81036;SDS011;70521;47.468;19.306;2023-11-18T10:21:36;10.43;;;10.00;;
81036;SDS011;70521;47.468;19.306;2023-11-18T10:24:49;10.70;;;10.25;;
81036;SDS011;70521;47.468;19.306;2023-11-18T10:27:50;14.75;;;14.25;;
81036;SDS011;70521;47.468;19.306;2023-11-18T10:30:52;6.05;;;5.63;;
81036;SDS011;70521;47.468;19.306;2023-11-18T10:33:53;8.75;;;8.13;;
81036;SDS011;70521;47.468;19.306;2023-11-18T10:36:59;10.10;;;9.60;;
81036;SDS011;70521;47.468;19.306;2023-11-18T10:40:04;11.85;;;11.38;;
81036;SDS011;70521;47.468;19.306;2023-11-18T10:43:05;11.82;;;11.32;;
81036;SDS011;70521;47.468;19.306;2023-11-18T10:46:11;14.48;;;13.93;;
81036;SDS011;70521;47.468;19.306;2023-11-18T10:49:12;13.98;;;13.38;;
81036;SDS011;70521;47.468;19.306;2023-11-18T10:52:13;8.55;;;8.25;;
81036;SDS011;70521;47.468;19.306;2023-11-18T10:55:14;8.52;;;8.20;;
81036;SDS011;70521;47.468;19.306;2023-11-18T10:58:20;17.92;;;17.33;;
81036;SDS011;70521;47.468;19.306;2023-11-18T11:01:30;10.55;;;10.18;;
81036;SDS011;70521;47.468;19.306;2023-11-18T11:04:42;9.32;;;8.93;;
81036;SDS011;70521;47.468;19.306;2023-11-18T11:07:43;7.78;;;7.43;;
81036;SDS011;70521;47.468;19.306;2023-11-18T11:10:46;9.57;;;9.07;;
81036;SDS011;70521;47.468;19.306;2023-11-18T11:13:49;18.30;;;17.70;;
81036;SDS011;70521;47.468;19.306;2023-11-18T11:16:52;11.10;;;10.50;;
81036;SDS011;70521;47.468;19.306;2023-11-18T11:19:55;18.13;;;17.30;;
81036;SDS011;70521;47.468;19.306;2023-11-18T11:26:34;12.38;;;11.85;;
81036;SDS011;70521;47.468;19.306;2023-11-18T11:29:51;9.88;;;9.43;;
81036;SDS011;70521;47.468;19.306;2023-11-18T11:32:58;12.02;;;11.25;;
81036;SDS011;70521;47.468;19.306;2023-11-18T11:36:01;8.13;;;7.82;;
81036;SDS011;70521;47.468;19.306;2023-11-18T11:39:03;8.90;;;8.50;;
81036;SDS011;70521;47.468;19.306;2023-11-18T11:42:04;8.50;;;8.10;;
81036;SDS011;70521;47.468;19.306;2023-11-18T11:45:12;8.52;;;8.13;;
81036;SDS011;70521;47.468;19.306;2023-11-18T11:48:20;9.45;;;8.98;;
81036;SDS011;70521;47.468;19.306;2023-11-18T11:51:29;7.25;;;6.95;;
81036;SDS011;70521;47.468;19.306;2023-11-18T11:54:40;12.82;;;12.32;;
81036;SDS011;70521;47.468;19.306;2023-11-18T11:57:49;7.45;;;7.15;;
81036;SDS011;70521;47.468;19.306;2023-11-18T12:03:52;14.38;;;13.88;;
81036;SDS011;70521;47.468;19.306;2023-11-18T12:10:02;13.45;;;12.95;;
81036;SDS011;70521;47.468;19.306;2023-11-18T12:13:08;11.88;;;11.43;;
81036;SDS011;70521;47.468;19.306;2023-11-18T12:16:10;11.50;;;11.07;;
81036;SDS011;70521;47.468;19.306;2023-11-18T12:19:31;20.25;;;19.60;;
81036;SDS011;70521;47.468;19.306;2023-11-18T12:23:04;11.07;;;10.57;;
81036;SDS011;70521;47.468;19.306;2023-11-18T12:29:34;9.70;;;9.30;;
81036;SDS011;70521;47.468;19.306;2023-11-18T12:39:27;12.25;;;11.75;;
81036;SDS011;70521;47.468;19.306;2023-11-18T12:49:08;14.00;;;13.50;;
81036;SDS011;70521;47.468;19.306;2023-11-18T12:52:15;13.55;;;13.10;;
81036;SDS011;70521;47.468;19.306;2023-11-18T12:55:19;7.60;;;7.30;;
81036;SDS011;70521;47.468;19.306;2023-11-18T12:58:20;9.90;;;9.43;;
81036;SDS011;70521;47.468;19.306;2023-11-18T13:01:24;15.05;;;14.55;;
81036;SDS011;70521;47.468;19.306;2023-11-18T13:04:28;12.02;;;11.55;;
81036;SDS011;70521;47.468;19.306;2023-11-18T13:07:31;11.90;;;11.45;;
81036;SDS011;70521;47.468;19.306;2023-11-18T13:10:32;8.30;;;7.97;;
81036;SDS011;70521;47.468;19.306;2023-11-18T13:13:36;11.23;;;10.65;;
81036;SDS011;70521;47.468;19.306;2023-11-18T13:16:37;12.15;;;11.75;;
81036;SDS011;70521;47.468;19.306;2023-11-18T13:19:42;13.68;;;13.00;;
81036;SDS011;70521;47.468;19.306;2023-11-18T13:22:43;14.32;;;13.75;;
81036;SDS011;70521;47.468;19.306;2023-11-18T13:25:44;15.75;;;15.15;;
81036;SDS011;70521;47.468;19.306;2023-11-18T13:28:46;9.93;;;9.52;;
81036;SDS011;70521;47.468;19.306;2023-11-18T13:31:47;11.63;;;11.15;;
81036;SDS011;70521;47.468;19.306;2023-11-18T13:34:48;18.65;;;17.85;;
81036;SDS011;70521;47.468;19.306;2023-11-18T13:37:49;18.48;;;17.17;;
81036;SDS011;70521;47.468;19.306;2023-11-18T13:40:51;15.68;;;15.00;;
81036;SDS011;70521;47.468;19.306;2023-11-18T13:43:52;12.38;;;11.93;;
81036;SDS011;70521;47.468;19.306;2023-11-18T13:46:53;9.15;;;8.70;;
81036;SDS011;70521;47.468;19.306;2023-11-18T13:49:54;10.02;;;9.63;;
81036;SDS011;70521;47.468;19.306;2023-11-18T13:52:56;7.47;;;7.18;;
81036;SDS011;70521;47.468;19.306;2023-11-18T13:55:57;11.60;;;11.18;;
81036;SDS011;70521;47.468;19.306;2023-11-18T13:58:58;12.82;;;12.32;;
81036;SDS011;70521;47.468;19.306;2023-11-18T14:01:59;11.60;;;11.15;;
81036;SDS011;70521;47.468;19.306;2023-11-18T14:05:03;11.20;;;10.57;;
81036;SDS011;70521;47.468;19.306;2023-11-18T14:08:06;9.40;;;9.00;;
81036;SDS011;70521;47.468;19.306;2023-11-18T14:11:10;12.15;;;11.75;;
81036;SDS011;70521;47.468;19.306;2023-11-18T14:14:11;10.50;;;10.07;;
81036;SDS011;70521;47.468;19.306;2023-11-18T14:17:13;12.93;;;12.43;;
81036;SDS011;70521;47.468;19.306;2023-11-18T14:20:14;9.75;;;9.35;;
81036;SDS011;70521;47.468;19.306;2023-11-18T14:23:15;17.88;;;17.27;;
81036;SDS011;70521;47.468;19.306;2023-11-18T14:26:16;17.88;;;17.23;;
81036;SDS011;70521;47.468;19.306;2023-11-18T14:29:17;11.32;;;10.90;;
81036;SDS011;70521;47.468;19.306;2023-11-18T14:32:19;14.52;;;13.80;;
81036;SDS011;70521;47.468;19.306;2023-11-18T14:35:20;14.70;;;14.00;;
81036;SDS011;70521;47.468;19.306;2023-11-18T14:38:21;12.68;;;12.18;;
81036;SDS011;70521;47.468;19.306;2023-11-18T14:41:22;10.73;;;10.13;;
81036;SDS011;70521;47.468;19.306;2023-11-18T14:44:27;12.65;;;12.10;;
81036;SDS011;70521;47.468;19.306;2023-11-18T14:47:28;14.48;;;13.88;;
81036;SDS011;70521;47.468;19.306;2023-11-18T14:50:29;15.35;;;14.73;;
81036;SDS011;70521;47.468;19.306;2023-11-18T14:53:30;18.33;;;17.63;;
81036;SDS011;70521;47.468;19.306;2023-11-18T14:56:31;17.48;;;16.77;;
81036;SDS011;70521;47.468;19.306;2023-11-18T14:59:32;13.02;;;12.40;;
81036;SDS011;70521;47.468;19.306;2023-11-18T15:02:33;17.08;;;16.38;;
81036;SDS011;70521;47.468;19.306;2023-11-18T15:05:37;10.05;;;9.55;;
81036;SDS011;70521;47.468;19.306;2023-11-18T15:08:39;13.98;;;13.27;;
81036;SDS011;70521;47.468;19.306;2023-11-18T15:11:43;15.73;;;15.13;;
81036;SDS011;70521;47.468;19.306;2023-11-18T15:14:45;13.43;;;12.82;;
81036;SDS011;70521;47.468;19.306;2023-11-18T15:17:46;14.48;;;13.88;;
81036;SDS011;70521;47.468;19.306;2023-11-18T15:20:47;22.40;;;21.45;;
81036;SDS011;70521;47.468;19.306;2023-11-18T15:23:49;14.63;;;13.93;;
81036;SDS011;70521;47.468;19.306;2023-11-18T15:26:50;14.60;;;13.88;;
81036;SDS011;70521;47.468;19.306;2023-11-18T15:29:52;18.25;;;17.60;;
81036;SDS011;70521;47.468;19.306;2023-11-18T15:32:53;24.75;;;23.83;;
81036;SDS011;70521;47.468;19.306;2023-11-18T15:35:54;22.02;;;20.73;;
81036;SDS011;70521;47.468;19.306;2023-11-18T15:38:55;20.45;;;19.52;;
81036;SDS011;70521;47.468;19.306;2023-11-18T15:41:56;20.08;;;19.25;;
81036;SDS011;70521;47.468;19.306;2023-11-18T15:44:58;20.00;;;19.08;;
81036;SDS011;70521;47.468;19.306;2023-11-18T15:47:59;20.55;;;19.70;;
81036;SDS011;70521;47.468;19.306;2023-11-18T15:51:01;23.35;;;22.42;;
81036;SDS011;70521;47.468;19.306;2023-11-18T15:54:02;27.45;;;26.17;;
81036;SDS011;70521;47.468;19.306;2023-11-18T15:57:03;19.95;;;19.15;;
81036;SDS011;70521;47.468;19.306;2023-11-18T16:00:05;22.80;;;21.50;;
81036;SDS011;70521;47.468;19.306;2023-11-18T16:03:07;21.88;;;20.77;;
81036;SDS011;70521;47.468;19.306;2023-11-18T16:06:09;24.90;;;23.70;;
81036;SDS011;70521;47.468;19.306;2023-11-18T16:09:11;21.67;;;20.55;;
81036;SDS011;70521;47.468;19.306;2023-11-18T16:12:12;19.95;;;19.02;;
81036;SDS011;70521;47.468;19.306;2023-11-18T16:15:13;28.95;;;27.60;;
81036;SDS011;70521;47.468;19.306;2023-11-18T16:18:14;17.50;;;16.27;;
81036;SDS011;70521;47.468;19.306;2023-11-18T16:21:16;19.80;;;18.63;;
81036;SDS011;70521;47.468;19.306;2023-11-18T16:24:18;23.80;;;22.67;;
81036;SDS011;70521;47.468;19.306;2023-11-18T16:27:19;20.83;;;19.60;;
81036;SDS011;70521;47.468;19.306;2023-11-18T16:30:21;22.13;;;20.77;;
81036;SDS011;70521;47.468;19.306;2023-11-18T16:33:25;24.98;;;23.42;;
81036;SDS011;70521;47.468;19.306;2023-11-18T16:36:27;19.88;;;19.02;;
81036;SDS011;70521;47.468;19.306;2023-11-18T16:39:28;27.58;;;26.35;;
81036;SDS011;70521;47.468;19.306;2023-11-18T16:42:29;18.02;;;17.02;;
81036;SDS011;70521;47.468;19.306;2023-11-18T16:45:30;19.88;;;18.58;;
81036;SDS011;70521;47.468;19.306;2023-11-18T16:48:31;18.35;;;17.30;;
81036;SDS011;70521;47.468;19.306;2023-11-18T16:51:33;17.65;;;16.60;;
81036;SDS011;70521;47.468;19.306;2023-11-18T16:54:34;19.83;;;18.75;;
81036;SDS011;70521;47.468;19.306;2023-11-18T16:57:35;30.42;;;29.00;;
81036;SDS011;70521;47.468;19.306;2023-11-18T17:00:36;23.40;;;22.33;;
81036;SDS011;70521;47.468;19.306;2023-11-18T17:03:38;27.10;;;25.77;;
81036;SDS011;70521;47.468;19.306;2023-11-18T17:06:39;33.70;;;32.30;;
81036;SDS011;70521;47.468;19.306;2023-11-18T17:09:40;26.77;;;25.45;;
81036;SDS011;70521;47.468;19.306;2023-11-18T17:12:42;40.10;;;38.40;;
81036;SDS011;70521;47.468;19.306;2023-11-18T17:15:43;19.52;;;18.45;;
81036;SDS011;70521;47.468;19.306;2023-11-18T17:18:45;24.17;;;22.98;;
81036;SDS011;70521;47.468;19.306;2023-11-18T17:21:46;21.60;;;20.58;;
81036;SDS011;70521;47.468;19.306;2023-11-18T17:24:47;21.30;;;20.20;;
81036;SDS011;70521;47.468;19.306;2023-11-18T17:27:49;22.00;;;20.85;;
81036;SDS011;70521;47.468;19.306;2023-11-18T17:30:50;20.17;;;19.27;;
81036;SDS011;70521;47.468;19.306;2023-11-18T17:33:51;21.20;;;20.08;;
81036;SDS011;70521;47.468;19.306;2023-11-18T17:36:52;23.17;;;22.08;;
81036;SDS011;70521;47.468;19.306;2023-11-18T17:39:54;18.52;;;17.50;;
81036;SDS011;70521;47.468;19.306;2023-11-18T17:42:55;26.08;;;24.98;;
81036;SDS011;70521;47.468;19.306;2023-11-18T17:45:56;19.52;;;18.40;;
81036;SDS011;70521;47.468;19.306;2023-11-18T17:48:57;25.30;;;23.73;;
81036;SDS011;70521;47.468;19.306;2023-11-18T17:51:58;24.80;;;23.75;;
81036;SDS011;70521;47.468;19.306;2023-11-18T17:55:00;49.78;;;47.97;;
81036;SDS011;70521;47.468;19.306;2023-11-18T17:58:03;24.55;;;23.35;;
81036;SDS011;70521;47.468;19.306;2023-11-18T18:01:04;22.58;;;21.52;;
81036;SDS011;70521;47.468;19.306;2023-11-18T18:04:07;36.42;;;34.95;;
81036;SDS011;70521;47.468;19.306;2023-11-18T18:07:08;22.45;;;21.50;;